createdAt,value
2018-06-15T00:02:15.963Z,15.70
2018-06-15T00:04:51.697Z,15.70
2018-06-15T00:07:26.401Z,15.70
2018-06-15T00:10:01.780Z,15.70
2018-06-15T00:12:36.508Z,15.70
2018-06-15T00:15:12.274Z,15.70
2018-06-15T00:17:48.033Z,15.80
2018-06-15T00:20:22.867Z,15.80
2018-06-15T00:22:57.615Z,15.80
2018-06-15T00:25:32.419Z,15.90
2018-06-15T00:28:07.143Z,15.90
2018-06-15T00:30:41.903Z,15.90
2018-06-15T00:33:16.618Z,15.90
2018-06-15T00:35:50.884Z,15.80
2018-06-15T00:38:25.566Z,15.70
2018-06-15T00:41:00.282Z,15.60
2018-06-15T00:43:35.011Z,15.50
2018-06-15T00:46:09.190Z,15.50
2018-06-15T00:48:45.175Z,15.40
2018-06-15T00:51:20.972Z,15.40
2018-06-15T00:53:55.127Z,15.40
2018-06-15T00:56:30.589Z,15.30
2018-06-15T00:59:04.763Z,15.40
2018-06-15T01:01:38.935Z,15.30
2018-06-15T01:04:13.082Z,15.40
2018-06-15T01:06:47.287Z,15.30
2018-06-15T01:09:23.650Z,15.20
2018-06-15T01:11:58.413Z,15.30
2018-06-15T01:14:33.160Z,15.20
2018-06-15T01:17:07.352Z,15.20
2018-06-15T01:19:42.044Z,15.20
2018-06-15T01:22:16.824Z,15.20
2018-06-15T01:24:50.993Z,15.20
2018-06-15T01:27:25.191Z,15.20
2018-06-15T01:29:59.362Z,15.10
2018-06-15T01:32:33.535Z,15.20
2018-06-15T01:35:07.686Z,15.10
2018-06-15T01:37:41.950Z,15.10
2018-06-15T01:40:16.712Z,15.20
2018-06-15T01:42:51.532Z,15.20
2018-06-15T01:50:34.741Z,15.20
2018-06-15T01:53:09.596Z,15.30
2018-06-15T01:55:44.318Z,15.30
2018-06-15T01:58:20.103Z,15.30
2018-06-15T02:00:55.905Z,15.30
2018-06-15T02:03:30.690Z,15.40
2018-06-15T02:06:05.410Z,15.40
2018-06-15T02:11:14.424Z,15.40
2018-06-15T02:13:49.171Z,15.40
2018-06-15T02:16:24.925Z,15.40
2018-06-15T02:18:59.672Z,15.40
2018-06-15T02:21:34.434Z,15.30
2018-06-15T02:24:09.142Z,15.20
2018-06-15T02:26:44.327Z,15.20
2018-06-15T02:29:19.524Z,15.10
2018-06-15T02:31:54.235Z,15.10
2018-06-15T02:34:28.415Z,15.00
2018-06-15T02:39:39.504Z,14.90
2018-06-15T02:42:14.896Z,14.90
2018-06-15T02:44:49.611Z,14.80
2018-06-15T02:47:24.379Z,14.80
2018-06-15T02:49:59.095Z,14.80
2018-06-15T02:52:33.345Z,14.70
2018-06-15T02:55:07.527Z,14.70
2018-06-15T02:57:41.771Z,14.70
2018-06-15T03:00:16.530Z,14.70
2018-06-15T03:02:52.512Z,14.70
2018-06-15T03:05:26.687Z,14.70
2018-06-15T03:08:00.838Z,14.70
2018-06-15T03:10:35.045Z,14.80
2018-06-15T03:13:10.248Z,14.80
2018-06-15T03:15:44.995Z,14.80
2018-06-15T03:18:19.152Z,14.90
2018-06-15T03:20:53.291Z,14.90
2018-06-15T03:23:27.443Z,14.90
2018-06-15T03:28:35.306Z,15.20
2018-06-15T03:31:09.540Z,15.10
2018-06-15T03:33:43.685Z,15.30
2018-06-15T03:36:17.888Z,15.40
2018-06-15T03:38:52.608Z,15.60
2018-06-15T03:41:27.344Z,15.80
2018-06-15T03:44:02.089Z,16.00
2018-06-15T03:46:37.809Z,16.00
2018-06-15T03:49:12.588Z,16.00
2018-06-15T03:51:47.268Z,15.90
2018-06-15T03:54:22.009Z,15.90
2018-06-15T03:56:56.719Z,15.90
2018-06-15T03:59:31.458Z,15.90
2018-06-15T04:02:06.176Z,15.90
2018-06-15T04:04:40.920Z,15.90
2018-06-15T04:07:15.700Z,15.90
2018-06-15T04:09:50.440Z,16.00
2018-06-15T04:12:25.503Z,16.10
2018-06-15T04:15:00.216Z,16.20
2018-06-15T04:17:34.945Z,16.20
2018-06-15T04:20:10.791Z,16.30
2018-06-15T04:22:46.519Z,16.40
2018-06-15T04:25:21.307Z,16.50
2018-06-15T04:27:56.126Z,16.50
2018-06-15T04:30:30.864Z,16.60
2018-06-15T04:35:39.850Z,16.50
2018-06-15T04:38:15.652Z,16.60
2018-06-15T04:40:50.527Z,16.60
2018-06-15T04:43:25.312Z,16.70
2018-06-15T04:48:34.321Z,16.90
2018-06-15T04:51:09.105Z,17.10
2018-06-15T04:53:43.878Z,17.20
2018-06-15T04:56:18.600Z,17.40
2018-06-15T04:58:53.350Z,17.70
2018-06-15T05:01:29.063Z,18.10
2018-06-15T05:04:04.858Z,19.10
2018-06-15T05:06:40.583Z,20.40
2018-06-15T05:09:15.366Z,21.70
2018-06-15T05:11:51.283Z,22.50
2018-06-15T05:14:25.994Z,22.90
2018-06-15T05:17:00.776Z,22.50
2018-06-15T05:19:35.482Z,22.10
2018-06-15T05:24:45.609Z,21.90
2018-06-15T05:27:20.373Z,22.20
2018-06-15T05:32:29.339Z,22.40
2018-06-15T05:35:05.136Z,22.10
2018-06-15T05:37:39.892Z,21.90
2018-06-15T05:42:48.872Z,21.70
2018-06-15T05:45:24.587Z,21.30
2018-06-15T05:47:59.343Z,21.10
2018-06-15T05:50:34.048Z,21.20
2018-06-15T05:53:09.782Z,21.80
2018-06-15T05:55:44.497Z,22.70
2018-06-15T05:58:19.322Z,23.60
2018-06-15T06:00:54.040Z,23.90
2018-06-15T06:03:28.763Z,24.10
2018-06-15T06:06:03.476Z,24.00
2018-06-15T06:08:38.249Z,24.50
2018-06-15T06:13:47.213Z,25.10
2018-06-15T06:16:22.956Z,25.00
2018-06-15T06:18:58.721Z,24.70
2018-06-15T06:21:34.479Z,24.40
2018-06-15T06:24:09.250Z,24.40
2018-06-15T06:26:43.975Z,24.90
2018-06-15T06:29:18.884Z,25.30
2018-06-15T06:31:53.660Z,25.80
2018-06-15T06:34:29.099Z,26.50
2018-06-15T06:37:03.555Z,27.00
2018-06-15T06:39:37.944Z,27.80
2018-06-15T06:42:12.376Z,28.20
2018-06-15T06:44:46.812Z,28.70
2018-06-15T06:47:21.260Z,27.80
2018-06-15T06:52:29.936Z,25.50
2018-06-15T06:55:04.723Z,24.40
2018-06-15T06:57:39.468Z,23.70
2018-06-15T07:02:48.535Z,22.30
2018-06-15T07:05:23.216Z,22.00
2018-06-15T07:07:58.003Z,22.70
2018-06-15T07:10:32.711Z,22.90
2018-06-15T07:13:08.503Z,23.60
2018-06-15T07:15:43.392Z,23.70
2018-06-15T07:18:18.104Z,23.70
2018-06-15T07:20:52.799Z,24.90
2018-06-15T07:23:27.553Z,25.80
2018-06-15T07:26:02.577Z,26.80
2018-06-15T07:31:11.506Z,28.10
2018-06-15T07:36:21.512Z,29.00
2018-06-15T07:38:56.248Z,28.90
2018-06-15T07:41:31.940Z,29.00
2018-06-15T07:44:06.731Z,29.40
2018-06-15T07:46:41.181Z,29.60
2018-06-15T07:49:17.577Z,29.80
2018-06-15T07:51:52.300Z,30.20
2018-06-15T07:54:26.843Z,30.30
2018-06-15T07:57:01.341Z,30.50
2018-06-15T07:59:35.770Z,30.60
2018-06-15T08:04:45.310Z,30.70
2018-06-15T08:07:19.804Z,30.50
2018-06-15T08:09:54.207Z,30.60
2018-06-15T08:12:28.672Z,30.10
2018-06-15T08:15:03.709Z,29.70
2018-06-15T08:17:38.163Z,29.60
2018-06-15T08:20:12.567Z,29.70
2018-06-15T08:22:47.321Z,29.50
2018-06-15T08:25:21.729Z,29.50
2018-06-15T08:27:56.153Z,29.20
2018-06-15T08:30:30.858Z,29.00
2018-06-15T08:33:05.622Z,28.80
2018-06-15T08:35:40.372Z,28.30
2018-06-15T08:43:24.551Z,27.90
2018-06-15T08:48:33.507Z,27.40
2018-06-15T08:51:09.271Z,27.30
2018-06-15T08:53:44.009Z,27.40
2018-06-15T08:56:18.680Z,27.30
2018-06-15T08:58:53.405Z,27.30
2018-06-15T09:01:29.110Z,27.30
2018-06-15T09:04:04.335Z,27.50
2018-06-15T09:06:39.018Z,27.70
2018-06-15T09:13:03.786Z,27.80
2018-06-15T09:15:39.758Z,27.50
2018-06-15T09:18:14.863Z,27.60
2018-06-15T09:20:51.747Z,27.40
2018-06-15T09:23:26.616Z,27.10
2018-06-15T09:26:01.468Z,27.30
2018-06-15T09:28:36.201Z,27.20
2018-06-15T09:31:10.890Z,27.10
2018-06-15T09:33:45.623Z,27.10
2018-06-15T09:36:20.348Z,27.10
2018-06-15T09:38:56.159Z,26.90
2018-06-15T09:41:36.600Z,27.00
2018-06-15T09:44:14.025Z,27.10
2018-06-15T09:49:25.144Z,27.10
2018-06-15T09:51:59.935Z,27.10
2018-06-15T09:54:41.107Z,26.90
2018-06-15T09:57:17.826Z,27.00
2018-06-15T10:00:02.168Z,27.00
2018-06-15T10:02:43.407Z,27.10
2018-06-15T10:08:19.706Z,26.70
2018-06-15T10:10:54.512Z,26.50
2018-06-15T10:13:30.252Z,26.30
2018-06-15T10:16:05.571Z,26.40
2018-06-15T10:21:14.508Z,26.10
2018-06-15T10:26:25.515Z,25.70
2018-06-15T10:29:00.299Z,25.60
2018-06-15T10:31:46.747Z,25.60
2018-06-15T10:34:21.467Z,25.30
2018-06-15T10:36:56.169Z,25.30
2018-06-15T10:39:30.980Z,25.10
2018-06-15T10:42:05.841Z,25.00
2018-06-15T10:44:40.807Z,25.00
2018-06-15T10:47:15.552Z,25.20
2018-06-15T10:49:50.272Z,25.00
2018-06-15T10:52:25.006Z,24.90
2018-06-15T10:54:59.744Z,24.90
2018-06-15T10:57:34.492Z,24.60
2018-06-15T11:00:09.318Z,24.50
2018-06-15T11:08:03.474Z,24.40
2018-06-15T11:10:52.302Z,24.50
2018-06-15T11:13:38.299Z,24.50
2018-06-15T11:16:19.448Z,24.60
2018-06-15T11:18:55.223Z,24.50
2018-06-15T11:21:31.044Z,24.60
2018-06-15T11:24:05.808Z,24.50
2018-06-15T11:26:40.544Z,24.50
2018-06-15T11:29:15.315Z,24.40
2018-06-15T11:31:51.066Z,24.20
2018-06-15T11:34:25.783Z,24.10
2018-06-15T11:37:00.611Z,24.10
2018-06-15T11:39:35.301Z,24.30
2018-06-15T11:42:11.080Z,24.20
2018-06-15T11:44:46.779Z,24.10
2018-06-15T11:49:55.784Z,24.10
2018-06-15T11:52:30.529Z,24.10
2018-06-15T11:55:05.317Z,24.00
2018-06-15T11:57:41.073Z,23.90
2018-06-15T12:00:15.820Z,23.80
2018-06-15T12:02:50.547Z,23.70
2018-06-15T12:05:26.389Z,23.80
2018-06-15T12:08:01.171Z,23.70
2018-06-15T12:10:36.940Z,23.70
2018-06-15T12:13:11.684Z,23.50
2018-06-15T12:15:46.388Z,23.60
2018-06-15T12:18:21.124Z,23.50
2018-06-15T12:20:55.826Z,23.50
2018-06-15T12:23:31.581Z,23.40
2018-06-15T12:26:06.503Z,23.50
2018-06-15T12:28:51.970Z,23.40
2018-06-15T12:31:34.200Z,23.40
2018-06-15T12:34:08.981Z,23.40
2018-06-15T12:36:43.857Z,23.30
2018-06-15T12:39:18.647Z,23.30
2018-06-15T12:44:28.712Z,23.40
2018-06-15T12:49:38.727Z,23.20
2018-06-15T12:52:13.118Z,23.10
2018-06-15T12:54:47.866Z,23.00
2018-06-15T12:57:22.573Z,22.80
2018-06-15T12:59:57.291Z,22.70
2018-06-15T13:02:31.993Z,22.60
2018-06-15T13:07:42.020Z,22.70
2018-06-15T13:10:17.791Z,22.60
2018-06-15T13:12:52.498Z,22.50
2018-06-15T13:15:28.302Z,22.60
2018-06-15T13:20:37.306Z,22.50
2018-06-15T13:23:26.854Z,22.50
2018-06-15T13:26:19.377Z,22.40
2018-06-15T13:31:33.833Z,22.50
2018-06-15T13:34:09.580Z,22.40
2018-06-15T13:36:44.340Z,22.20
2018-06-15T13:39:19.067Z,22.30
2018-06-15T13:41:53.830Z,22.20
2018-06-15T13:44:28.556Z,22.20
2018-06-15T13:47:03.285Z,22.10
2018-06-15T13:49:37.994Z,22.20
2018-06-15T13:52:12.830Z,22.10
2018-06-15T13:54:47.528Z,22.00
2018-06-15T13:57:22.319Z,22.00
2018-06-15T13:59:57.011Z,22.00
2018-06-15T14:02:32.795Z,21.90
2018-06-15T14:05:08.531Z,21.90
2018-06-15T14:10:17.518Z,21.90
2018-06-15T14:12:53.379Z,21.90
2018-06-15T14:18:02.711Z,21.70
2018-06-15T14:20:37.428Z,21.70
2018-06-15T14:23:13.142Z,21.70
2018-06-15T14:28:23.176Z,21.60
2018-06-15T14:30:57.872Z,21.60
2018-06-15T14:33:32.617Z,21.60
2018-06-15T14:36:07.525Z,21.60
2018-06-15T14:38:42.240Z,21.50
2018-06-15T14:41:16.965Z,21.50
2018-06-15T14:43:54.109Z,21.50
2018-06-15T14:46:30.492Z,21.30
2018-06-15T14:51:58.425Z,21.30
2018-06-15T14:54:33.187Z,21.30
2018-06-15T14:57:08.989Z,21.30
2018-06-15T14:59:43.732Z,21.20
2018-06-15T15:02:19.447Z,21.20
2018-06-15T15:04:55.299Z,21.20
2018-06-15T15:07:30.224Z,21.10
2018-06-15T15:10:06.143Z,21.10
2018-06-15T15:12:41.872Z,21.10
2018-06-15T15:15:16.607Z,21.20
2018-06-15T15:17:51.308Z,21.10
2018-06-15T15:20:26.019Z,21.20
2018-06-15T15:23:00.721Z,21.10
2018-06-15T15:28:09.632Z,21.10
2018-06-15T15:30:44.351Z,21.10
2018-06-15T15:33:19.087Z,21.10
2018-06-15T15:35:53.815Z,21.10
2018-06-15T15:38:28.514Z,21.10
2018-06-15T15:41:03.277Z,21.10
2018-06-15T15:43:37.964Z,21.00
2018-06-15T15:46:12.857Z,21.10
2018-06-15T15:48:47.543Z,21.10
2018-06-15T15:51:22.251Z,21.00
2018-06-15T15:53:56.961Z,21.00
2018-06-15T15:56:31.720Z,20.90
2018-06-15T15:59:06.391Z,20.90
2018-06-15T16:01:41.128Z,20.80
2018-06-15T16:04:15.852Z,20.80
2018-06-15T16:06:50.721Z,20.80
2018-06-15T16:09:25.586Z,20.80
2018-06-15T16:12:00.409Z,20.70
2018-06-15T16:17:10.388Z,20.70
2018-06-15T16:19:45.103Z,20.70
2018-06-15T16:22:19.832Z,20.60
2018-06-15T16:24:54.573Z,20.50
2018-06-15T16:27:30.364Z,20.50
2018-06-15T16:32:55.021Z,20.40
2018-06-15T16:35:29.767Z,20.40
2018-06-15T16:38:04.569Z,20.40
2018-06-15T16:40:39.284Z,20.30
2018-06-15T16:45:49.703Z,20.30
2018-06-15T16:48:24.483Z,20.30
2018-06-15T16:50:59.364Z,20.20
2018-06-15T16:53:34.100Z,20.20
2018-06-15T16:56:08.794Z,20.10
2018-06-15T16:58:44.581Z,20.10
2018-06-15T17:01:19.276Z,20.10
2018-06-15T17:03:54.063Z,20.20
2018-06-15T17:09:04.144Z,20.10
2018-06-15T17:11:39.886Z,20.10
2018-06-15T17:14:15.635Z,20.10
2018-06-15T17:16:50.412Z,20.00
2018-06-15T17:19:25.268Z,20.00
2018-06-15T17:22:00.194Z,20.00
2018-06-15T17:24:34.962Z,19.90
2018-06-15T17:27:09.666Z,20.00
2018-06-15T17:29:44.378Z,20.00
2018-06-15T17:32:19.077Z,19.90
2018-06-15T17:34:54.849Z,19.90
2018-06-15T17:37:29.569Z,19.90
2018-06-15T17:40:05.404Z,19.90
2018-06-15T17:42:40.117Z,19.80
2018-06-15T17:45:15.893Z,19.80
2018-06-15T17:47:50.604Z,19.80
2018-06-15T17:50:25.317Z,19.80
2018-06-15T17:53:01.081Z,19.70
2018-06-15T17:55:35.824Z,19.70
2018-06-15T17:58:10.553Z,19.70
2018-06-15T18:00:45.339Z,19.70
2018-06-15T18:03:21.383Z,19.70
2018-06-15T18:05:56.133Z,19.50
2018-06-15T18:08:30.903Z,19.50
2018-06-15T18:11:05.786Z,19.50
2018-06-15T18:13:41.553Z,19.40
2018-06-15T18:16:17.247Z,19.40
2018-06-15T18:21:26.225Z,19.40
2018-06-15T18:24:00.934Z,19.40
2018-06-15T18:26:35.704Z,19.40
2018-06-15T18:29:10.407Z,19.40
2018-06-15T18:31:45.246Z,19.40
2018-06-15T18:34:19.947Z,19.40
2018-06-15T18:36:54.704Z,19.40
2018-06-15T18:39:29.420Z,19.30
2018-06-15T18:42:04.234Z,19.30
2018-06-15T18:44:38.932Z,19.20
2018-06-15T18:47:13.703Z,19.10
2018-06-15T18:49:48.431Z,19.20
2018-06-15T18:52:23.160Z,19.10
2018-06-15T18:54:57.884Z,19.10
2018-06-15T18:57:32.640Z,19.10
2018-06-15T19:00:07.361Z,19.10
2018-06-15T19:02:43.344Z,19.00
2018-06-15T19:05:18.081Z,19.00
2018-06-15T19:07:52.842Z,19.00
2018-06-15T19:10:28.617Z,18.90
2018-06-15T19:13:04.378Z,18.80
2018-06-15T19:15:39.139Z,18.70
2018-06-15T19:18:13.870Z,18.70
2018-06-15T19:20:48.604Z,18.60
2018-06-15T19:23:23.321Z,18.50
2018-06-15T19:25:58.057Z,18.40
2018-06-15T19:28:32.738Z,18.30
2018-06-15T19:31:07.493Z,18.20
2018-06-15T19:33:42.406Z,18.10
2018-06-15T19:41:25.630Z,17.90
2018-06-15T19:44:00.359Z,17.80
2018-06-15T19:46:36.121Z,17.70
2018-06-15T19:49:10.869Z,17.50
2018-06-15T19:51:46.644Z,17.30
2018-06-15T19:54:21.343Z,17.10
2018-06-15T19:56:56.102Z,16.90
2018-06-15T19:59:31.868Z,16.70
2018-06-15T20:02:06.599Z,16.50
2018-06-15T20:04:42.393Z,16.30
2018-06-15T20:07:18.147Z,15.90
2018-06-15T20:09:52.912Z,15.90
2018-06-15T20:12:27.676Z,15.80
2018-06-15T20:15:04.196Z,15.70
2018-06-15T20:17:38.903Z,15.50
2018-06-15T20:20:13.647Z,15.40
2018-06-15T20:22:48.339Z,15.20
2018-06-15T20:27:57.518Z,15.00
2018-06-15T20:30:32.284Z,14.90
2018-06-15T20:33:07.015Z,14.80
2018-06-15T20:35:41.761Z,14.80
2018-06-15T20:40:51.712Z,14.50
2018-06-15T20:43:26.355Z,14.50
2018-06-15T20:51:08.943Z,14.10
2018-06-15T20:53:43.076Z,14.10
2018-06-15T20:56:17.263Z,14.00
2018-06-15T20:58:51.477Z,14.00
2018-06-15T21:01:25.666Z,13.90
2018-06-15T21:03:59.869Z,13.90
2018-06-15T21:06:34.063Z,13.80
2018-06-15T21:09:10.231Z,13.70
2018-06-15T21:11:44.519Z,13.70
2018-06-15T21:14:19.656Z,13.60
2018-06-15T21:16:54.971Z,13.60
2018-06-15T21:19:29.112Z,13.60
2018-06-15T21:22:03.297Z,13.60
2018-06-15T21:24:39.049Z,13.60
2018-06-15T21:27:13.540Z,13.50
2018-06-15T21:29:47.692Z,13.40
2018-06-15T21:32:21.873Z,13.20
2018-06-15T21:34:56.051Z,13.20
2018-06-15T21:37:30.266Z,13.20
2018-06-15T21:40:04.455Z,13.10
2018-06-15T21:42:39.667Z,13.10
2018-06-15T21:45:13.822Z,13.00
2018-06-15T21:47:48.143Z,12.90
2018-06-15T21:50:22.712Z,12.90
2018-06-15T21:52:56.932Z,12.90
2018-06-15T21:55:31.086Z,12.80
2018-06-15T21:58:05.269Z,12.70
2018-06-15T22:00:39.473Z,12.70
2018-06-15T22:03:14.618Z,12.60
2018-06-15T22:05:48.836Z,12.50
2018-06-15T22:08:24.363Z,12.50
2018-06-15T22:10:58.535Z,12.50
2018-06-15T22:13:32.791Z,12.40
2018-06-15T22:18:40.677Z,12.30
2018-06-15T22:21:14.847Z,12.30
2018-06-15T22:23:49.072Z,12.20
2018-06-15T22:26:23.285Z,12.20
2018-06-15T22:28:58.564Z,12.10
2018-06-15T22:31:32.704Z,12.00
2018-06-15T22:34:06.939Z,12.00
2018-06-15T22:36:41.788Z,11.90
2018-06-15T22:39:17.218Z,12.00
2018-06-15T22:41:51.391Z,12.00
2018-06-15T22:44:26.630Z,11.90
2018-06-15T22:49:34.453Z,11.80
2018-06-15T22:52:08.603Z,11.70
2018-06-15T22:54:42.787Z,11.70
2018-06-15T22:57:16.950Z,11.70
2018-06-15T22:59:51.142Z,11.60
2018-06-15T23:02:25.288Z,11.50
2018-06-15T23:05:00.528Z,11.50
2018-06-15T23:07:35.717Z,11.50
2018-06-15T23:10:09.891Z,11.60
2018-06-15T23:15:17.874Z,11.60
2018-06-15T23:17:52.037Z,11.60
2018-06-15T23:20:26.263Z,11.60
2018-06-15T23:23:00.419Z,11.50
2018-06-15T23:25:34.666Z,11.40
2018-06-15T23:30:42.544Z,11.40
2018-06-15T23:33:16.699Z,11.40
2018-06-15T23:35:50.867Z,11.50
2018-06-15T23:38:25.020Z,11.40
2018-06-15T23:43:32.946Z,11.40
2018-06-15T23:46:07.135Z,11.40
2018-06-15T23:48:41.302Z,11.40
2018-06-15T23:51:16.512Z,11.40
2018-06-15T23:53:50.706Z,11.50
2018-06-15T23:58:58.592Z,11.40
